createdAt,value
2023-05-01T00:02:43.225Z,100636.00
2023-05-01T00:05:46.496Z,100628.94
2023-05-01T00:08:49.186Z,100629.69
2023-05-01T00:11:51.999Z,100627.50
2023-05-01T00:14:55.400Z,100624.63
2023-05-01T00:17:58.600Z,100620.06
2023-05-01T00:21:01.269Z,100613.66
2023-05-01T00:24:03.892Z,100604.34
2023-05-01T00:27:06.359Z,100614.13
2023-05-01T00:30:09.436Z,100616.03
2023-05-01T00:33:12.113Z,100607.47
2023-05-01T00:36:14.815Z,100609.81
2023-05-01T00:39:17.649Z,100608.97
2023-05-01T00:42:20.150Z,100616.25
2023-05-01T00:45:22.602Z,100619.09
2023-05-01T00:48:26.031Z,100616.25
2023-05-01T00:51:29.982Z,100614.56
2023-05-01T00:54:32.713Z,100619.28
2023-05-01T00:57:35.889Z,100615.97
2023-05-01T01:00:39.014Z,100624.22
2023-05-01T01:03:41.512Z,100622.59
2023-05-01T01:07:03.953Z,100625.25
2023-05-01T01:10:19.451Z,100625.44
2023-05-01T01:13:33.084Z,100618.03
2023-05-01T01:16:46.032Z,100623.00
2023-05-01T01:20:26.983Z,100625.25
2023-05-01T01:23:30.572Z,100625.00
2023-05-01T01:26:57.034Z,100626.16
2023-05-01T01:30:23.656Z,100624.22
2023-05-01T01:33:49.496Z,100619.63
2023-05-01T01:36:57.906Z,100622.13
2023-05-01T01:40:02.846Z,100622.72
2023-05-01T01:43:13.572Z,100616.91
2023-05-01T01:46:18.018Z,100614.91
2023-05-01T01:49:25.253Z,100619.25
2023-05-01T01:52:30.350Z,100624.41
2023-05-01T01:55:36.054Z,100622.19
2023-05-01T01:58:40.748Z,100613.53
2023-05-01T02:01:44.773Z,100612.63
2023-05-01T02:04:52.180Z,100616.47
2023-05-01T02:07:56.554Z,100621.38
2023-05-01T02:11:02.208Z,100630.44
2023-05-01T02:14:08.877Z,100628.47
2023-05-01T02:17:12.801Z,100634.16
2023-05-01T02:20:16.135Z,100634.03
2023-05-01T02:23:18.884Z,100633.53
2023-05-01T02:26:25.371Z,100636.28
2023-05-01T02:29:28.151Z,100636.78
2023-05-01T02:32:31.939Z,100633.84
2023-05-01T02:35:44.793Z,100635.31
2023-05-01T02:38:51.029Z,100638.47
2023-05-01T02:41:55.883Z,100640.09
2023-05-01T02:45:01.737Z,100636.91
2023-05-01T02:48:10.206Z,100637.75
2023-05-01T02:51:13.326Z,100641.28
2023-05-01T02:54:17.454Z,100645.53
2023-05-01T02:57:20.525Z,100647.22
2023-05-01T03:00:23.592Z,100641.41
2023-05-01T03:03:27.946Z,100647.06
2023-05-01T03:06:31.290Z,100644.91
2023-05-01T03:09:34.014Z,100653.22
2023-05-01T03:12:37.809Z,100655.41
2023-05-01T03:15:40.307Z,100655.25
2023-05-01T03:18:42.889Z,100652.13
2023-05-01T03:21:45.372Z,100658.25
2023-05-01T03:24:47.908Z,100658.94
2023-05-01T03:27:50.451Z,100649.66
2023-05-01T03:30:53.184Z,100651.28
2023-05-01T03:33:56.075Z,100652.94
2023-05-01T03:36:58.613Z,100651.84
2023-05-01T03:40:03.520Z,100657.31
2023-05-01T03:43:25.524Z,100650.00
2023-05-01T03:46:29.197Z,100649.66
2023-05-01T03:49:32.137Z,100647.50
2023-05-01T03:52:34.899Z,100651.16
2023-05-01T03:55:37.449Z,100653.94
2023-05-01T03:58:40.117Z,100654.28
2023-05-01T04:01:42.667Z,100654.09
2023-05-01T04:04:45.275Z,100659.25
2023-05-01T04:07:47.780Z,100656.59
2023-05-01T04:10:50.690Z,100659.22
2023-05-01T04:13:53.258Z,100664.47
2023-05-01T04:16:56.705Z,100662.59
2023-05-01T04:20:01.063Z,100660.72
2023-05-01T04:23:03.663Z,100667.00
2023-05-01T04:26:06.312Z,100662.09
2023-05-01T04:29:09.498Z,100662.72
2023-05-01T04:32:12.134Z,100668.34
2023-05-01T04:35:15.007Z,100662.78
2023-05-01T04:38:19.818Z,100671.22
2023-05-01T04:41:22.489Z,100668.31
2023-05-01T04:44:25.592Z,100667.38
2023-05-01T04:47:28.863Z,100674.88
2023-05-01T04:50:31.889Z,100676.72
2023-05-01T04:53:34.406Z,100678.34
2023-05-01T04:56:38.204Z,100681.00
2023-05-01T04:59:41.004Z,100675.31
2023-05-01T05:02:44.156Z,100676.88
2023-05-01T05:05:49.233Z,100671.38
2023-05-01T05:08:52.232Z,100676.88
2023-05-01T05:11:55.003Z,100682.38
2023-05-01T05:14:59.083Z,100682.53
2023-05-01T05:18:03.918Z,100676.72
2023-05-01T05:21:10.445Z,100689.97
2023-05-01T05:24:15.142Z,100691.13
2023-05-01T05:27:17.753Z,100694.38
2023-05-01T05:30:20.567Z,100695.22
2023-05-01T05:33:25.005Z,100695.47
2023-05-01T05:36:27.849Z,100704.75
2023-05-01T05:39:31.665Z,100706.03
2023-05-01T05:42:34.341Z,100698.06
2023-05-01T05:45:40.948Z,100704.28
2023-05-01T05:48:43.593Z,100710.31
2023-05-01T05:51:46.653Z,100715.03
2023-05-01T05:54:49.571Z,100716.72
2023-05-01T05:57:52.272Z,100716.25
2023-05-01T06:00:56.017Z,100702.41
2023-05-01T06:03:58.750Z,100702.47
2023-05-01T06:07:04.476Z,100705.44
2023-05-01T06:10:07.620Z,100709.63
2023-05-01T06:13:13.962Z,100707.63
2023-05-01T06:16:20.471Z,100711.59
2023-05-01T06:19:23.079Z,100705.88
2023-05-01T06:22:29.586Z,100715.19
2023-05-01T06:25:53.377Z,100710.47
2023-05-01T06:28:56.288Z,100707.78
2023-05-01T06:31:59.890Z,100711.09
2023-05-01T06:35:02.584Z,100704.47
2023-05-01T06:38:05.426Z,100712.31
2023-05-01T06:41:08.083Z,100710.06
2023-05-01T06:44:10.686Z,100713.75
2023-05-01T06:47:13.979Z,100711.66
2023-05-01T06:50:16.663Z,100708.56
2023-05-01T06:53:19.248Z,100707.72
2023-05-01T06:56:21.768Z,100713.50
2023-05-01T06:59:25.448Z,100719.09
2023-05-01T07:02:28.029Z,100715.56
2023-05-01T07:05:31.054Z,100708.94
2023-05-01T07:08:33.513Z,100719.88
2023-05-01T07:11:36.692Z,100715.97
2023-05-01T07:14:39.659Z,100714.44
2023-05-01T07:17:42.667Z,100715.59
2023-05-01T07:20:45.661Z,100718.59
2023-05-01T07:23:48.227Z,100716.50
2023-05-01T07:26:51.763Z,100716.16
2023-05-01T07:29:56.412Z,100722.16
2023-05-01T07:32:59.315Z,100720.88
2023-05-01T07:36:02.094Z,100723.97
2023-05-01T07:39:05.078Z,100722.44
2023-05-01T07:42:08.035Z,100726.69
2023-05-01T07:45:11.227Z,100721.28
2023-05-01T07:48:14.004Z,100723.41
2023-05-01T07:51:18.469Z,100722.53
2023-05-01T07:54:22.672Z,100718.50
2023-05-01T07:57:25.215Z,100717.81
2023-05-01T08:00:28.285Z,100718.06
2023-05-01T08:03:31.866Z,100722.28
2023-05-01T08:06:34.496Z,100711.75
2023-05-01T08:09:37.097Z,100714.72
2023-05-01T08:12:39.895Z,100718.75
2023-05-01T08:15:43.068Z,100707.09
2023-05-01T08:18:46.518Z,100710.03
2023-05-01T08:21:49.236Z,100718.38
2023-05-01T08:24:52.464Z,100711.25
2023-05-01T08:27:55.052Z,100711.19
2023-05-01T08:30:57.564Z,100713.25
2023-05-01T08:34:00.976Z,100718.00
2023-05-01T08:37:03.495Z,100714.63
2023-05-01T08:40:08.952Z,100709.53
2023-05-01T08:43:13.131Z,100714.25
2023-05-01T08:46:51.532Z,100714.47
2023-05-01T08:49:55.790Z,100719.78
2023-05-01T08:52:59.462Z,100706.94
2023-05-01T08:56:06.600Z,100704.53
2023-05-01T08:59:10.086Z,100704.88
2023-05-01T09:02:16.131Z,100704.09
2023-05-01T09:05:20.072Z,100701.13
2023-05-01T09:08:22.786Z,100705.56
2023-05-01T09:11:26.199Z,100701.22
2023-05-01T09:14:31.190Z,100697.25
2023-05-01T09:17:34.606Z,100697.84
2023-05-01T09:20:37.896Z,100697.19
2023-05-01T09:23:41.093Z,100693.19
2023-05-01T09:26:43.765Z,100681.34
2023-05-01T09:29:47.928Z,100684.66
2023-05-01T09:33:04.681Z,100678.28
2023-05-01T09:36:08.588Z,100680.72
2023-05-01T09:39:23.092Z,100683.09
2023-05-01T09:42:26.008Z,100676.16
2023-05-01T09:45:28.810Z,100677.91
2023-05-01T09:48:34.815Z,100678.47
2023-05-01T09:51:38.104Z,100676.34
2023-05-01T09:54:41.380Z,100675.50
2023-05-01T09:57:45.473Z,100680.97
2023-05-01T10:00:51.676Z,100676.81
2023-05-01T10:03:55.525Z,100668.66
2023-05-01T10:07:13.426Z,100661.69
2023-05-01T10:10:17.027Z,100659.44
2023-05-01T10:13:19.763Z,100656.50
2023-05-01T10:16:30.552Z,100659.03
2023-05-01T10:19:33.227Z,100658.75
2023-05-01T10:22:35.789Z,100661.81
2023-05-01T10:25:41.739Z,100655.25
2023-05-01T10:28:46.523Z,100653.94
2023-05-01T10:31:49.229Z,100651.06
2023-05-01T10:35:01.894Z,100641.31
2023-05-01T10:38:10.236Z,100630.31
2023-05-01T10:41:13.247Z,100633.28
2023-05-01T10:44:27.906Z,100624.44
2023-05-01T10:47:31.581Z,100621.66
2023-05-01T10:50:34.789Z,100617.41
2023-05-01T10:53:38.745Z,100610.81
2023-05-01T10:56:43.440Z,100616.09
2023-05-01T11:00:05.186Z,100610.16
2023-05-01T11:03:23.138Z,100606.13
2023-05-01T11:06:26.378Z,100604.97
2023-05-01T11:09:55.508Z,100609.47
2023-05-01T11:12:58.674Z,100597.94
2023-05-01T11:16:39.468Z,100595.97
2023-05-01T11:19:47.710Z,100592.00
2023-05-01T11:22:58.077Z,100589.50
2023-05-01T11:26:04.797Z,100584.34
2023-05-01T11:29:08.158Z,100585.78
2023-05-01T11:32:11.277Z,100581.09
2023-05-01T11:35:21.714Z,100582.13
2023-05-01T11:38:24.291Z,100577.09
2023-05-01T11:41:27.357Z,100578.78
2023-05-01T11:44:30.447Z,100575.34
2023-05-01T11:47:32.997Z,100573.69
2023-05-01T11:50:38.286Z,100570.72
2023-05-01T11:53:40.909Z,100566.00
2023-05-01T11:56:43.563Z,100560.59
2023-05-01T11:59:48.033Z,100549.63
2023-05-01T12:03:03.149Z,100556.66
2023-05-01T12:06:05.920Z,100552.59
2023-05-01T12:09:08.925Z,100548.59
2023-05-01T12:12:13.064Z,100550.97
2023-05-01T12:15:15.610Z,100542.16
2023-05-01T12:18:18.810Z,100545.63
2023-05-01T12:21:22.771Z,100528.81
2023-05-01T12:24:25.644Z,100533.59
2023-05-01T12:27:28.175Z,100536.03
2023-05-01T12:30:31.040Z,100533.66
2023-05-01T12:33:33.603Z,100535.88
2023-05-01T12:36:37.725Z,100519.28
2023-05-01T12:39:42.673Z,100517.81
2023-05-01T12:42:57.881Z,100518.06
2023-05-01T12:46:01.458Z,100516.91
2023-05-01T12:49:05.355Z,100506.16
2023-05-01T12:52:09.137Z,100505.81
2023-05-01T12:55:12.896Z,100497.03
2023-05-01T12:58:16.462Z,100492.59
2023-05-01T13:01:28.919Z,100494.00
2023-05-01T13:04:32.459Z,100480.66
2023-05-01T13:07:36.328Z,100479.16
2023-05-01T13:10:39.592Z,100477.34
2023-05-01T13:13:44.997Z,100474.88
2023-05-01T13:16:49.109Z,100475.59
2023-05-01T13:19:56.197Z,100472.88
2023-05-01T13:22:59.175Z,100470.78
2023-05-01T13:26:02.690Z,100464.59
2023-05-01T13:29:06.129Z,100458.34
2023-05-01T13:32:11.485Z,100466.47
2023-05-01T13:35:23.630Z,100452.22
2023-05-01T13:38:27.268Z,100455.56
2023-05-01T13:41:30.626Z,100451.53
2023-05-01T13:44:33.939Z,100450.84
2023-05-01T13:47:40.451Z,100449.00
2023-05-01T13:50:43.228Z,100432.38
2023-05-01T13:53:46.243Z,100431.47
2023-05-01T13:56:49.113Z,100430.72
2023-05-01T13:59:51.820Z,100434.03
2023-05-01T14:02:56.670Z,100424.69
2023-05-01T14:05:59.843Z,100419.31
2023-05-01T14:09:04.018Z,100410.19
2023-05-01T14:12:06.489Z,100423.19
2023-05-01T14:15:11.687Z,100413.59
2023-05-01T14:18:17.803Z,100415.75
2023-05-01T14:21:22.813Z,100410.22
2023-05-01T14:24:25.489Z,100409.19
2023-05-01T14:27:28.030Z,100399.19
2023-05-01T14:30:38.759Z,100400.69
2023-05-01T14:33:43.677Z,100395.69
2023-05-01T14:36:46.297Z,100392.22
2023-05-01T14:39:48.942Z,100386.50
2023-05-01T14:42:51.551Z,100391.72
2023-05-01T14:45:55.726Z,100383.75
2023-05-01T14:49:00.131Z,100375.31
2023-05-01T14:52:03.378Z,100383.53
2023-05-01T14:55:06.809Z,100379.13
2023-05-01T14:58:09.898Z,100369.97
2023-05-01T15:01:14.274Z,100381.75
2023-05-01T15:04:17.438Z,100380.06
2023-05-01T15:07:20.233Z,100380.91
2023-05-01T15:10:24.075Z,100373.47
2023-05-01T15:13:27.100Z,100378.28
2023-05-01T15:16:30.863Z,100366.50
2023-05-01T15:19:33.874Z,100375.06
2023-05-01T15:22:37.582Z,100361.03
2023-05-01T15:25:43.840Z,100363.66
2023-05-01T15:28:46.430Z,100369.75
2023-05-01T15:31:53.756Z,100369.53
2023-05-01T15:35:01.424Z,100359.97
2023-05-01T15:38:04.403Z,100358.22
2023-05-01T15:41:07.363Z,100370.22
2023-05-01T15:44:11.130Z,100360.03
2023-05-01T15:47:14.713Z,100360.59
2023-05-01T15:50:17.375Z,100356.75
2023-05-01T15:53:21.315Z,100352.88
2023-05-01T15:56:23.853Z,100356.72
2023-05-01T15:59:27.184Z,100351.63
2023-05-01T16:02:33.141Z,100360.56
2023-05-01T16:05:36.840Z,100365.06
2023-05-01T16:08:40.073Z,100360.53
2023-05-01T16:11:43.479Z,100371.47
2023-05-01T16:14:48.192Z,100365.09
2023-05-01T16:17:51.963Z,100369.09
2023-05-01T16:20:56.744Z,100364.63
2023-05-01T16:24:01.542Z,100354.84
2023-05-01T16:27:04.139Z,100361.34
2023-05-01T16:30:07.511Z,100351.50
2023-05-01T16:33:23.337Z,100349.88
2023-05-01T16:36:25.914Z,100358.47
2023-05-01T16:39:28.562Z,100354.53
2023-05-01T16:42:31.062Z,100356.44
2023-05-01T16:45:33.889Z,100351.09
2023-05-01T16:48:36.863Z,100362.78
2023-05-01T16:51:42.343Z,100363.03
2023-05-01T16:54:44.933Z,100354.06
2023-05-01T16:57:47.615Z,100355.66
2023-05-01T17:00:50.456Z,100354.84
2023-05-01T17:03:53.155Z,100353.72
2023-05-01T17:06:56.289Z,100363.69
2023-05-01T17:09:59.335Z,100355.22
2023-05-01T17:13:02.054Z,100354.53
2023-05-01T17:16:04.907Z,100347.44
2023-05-01T17:19:09.828Z,100350.22
2023-05-01T17:22:12.574Z,100350.22
2023-05-01T17:25:15.228Z,100350.44
2023-05-01T17:28:19.010Z,100349.59
2023-05-01T17:31:22.769Z,100351.13
2023-05-01T17:34:25.399Z,100351.66
2023-05-01T17:37:28.288Z,100349.47
2023-05-01T17:40:32.344Z,100349.44
2023-05-01T17:43:34.912Z,100348.44
2023-05-01T17:46:39.046Z,100351.81
2023-05-01T17:49:41.686Z,100352.41
2023-05-01T17:52:47.514Z,100356.06
2023-05-01T17:55:50.035Z,100355.16
2023-05-01T17:58:54.222Z,100354.19
2023-05-01T18:01:58.473Z,100349.69
2023-05-01T18:05:04.164Z,100350.16
2023-05-01T18:08:07.536Z,100340.28
2023-05-01T18:11:10.148Z,100347.41
2023-05-01T18:14:13.006Z,100347.03
2023-05-01T18:17:15.836Z,100352.25
2023-05-01T18:20:18.694Z,100347.00
2023-05-01T18:23:21.366Z,100348.16
2023-05-01T18:26:26.181Z,100334.81
2023-05-01T18:29:29.503Z,100343.84
2023-05-01T18:32:46.356Z,100348.38
2023-05-01T18:35:50.462Z,100350.53
2023-05-01T18:38:53.916Z,100362.16
2023-05-01T18:41:56.788Z,100350.44
2023-05-01T18:44:59.592Z,100357.59
2023-05-01T18:48:03.197Z,100360.66
2023-05-01T18:51:08.948Z,100357.56
2023-05-01T18:54:14.116Z,100367.44
2023-05-01T18:57:16.694Z,100360.75
2023-05-01T19:00:21.448Z,100364.63
2023-05-01T19:03:24.279Z,100376.44
2023-05-01T19:06:27.003Z,100375.50
2023-05-01T19:09:29.923Z,100373.03
2023-05-01T19:12:39.422Z,100383.50
2023-05-01T19:15:43.659Z,100381.38
2023-05-01T19:18:48.415Z,100378.41
2023-05-01T19:21:51.903Z,100382.06
2023-05-01T19:24:54.642Z,100391.19
2023-05-01T19:27:57.473Z,100388.00
2023-05-01T19:31:00.382Z,100386.69
2023-05-01T19:34:03.280Z,100391.84
2023-05-01T19:37:06.526Z,100386.00
2023-05-01T19:40:10.134Z,100385.19
2023-05-01T19:43:16.220Z,100388.00
2023-05-01T19:46:19.038Z,100376.16
2023-05-01T19:49:24.038Z,100380.94
2023-05-01T19:52:27.566Z,100384.00
2023-05-01T19:55:30.894Z,100381.41
2023-05-01T19:58:33.681Z,100385.69
2023-05-01T20:01:38.827Z,100377.34
2023-05-01T20:04:42.047Z,100378.34
2023-05-01T20:07:45.414Z,100384.00
2023-05-01T20:10:49.100Z,100378.13
2023-05-01T20:13:51.821Z,100386.50
2023-05-01T20:16:54.966Z,100380.47
2023-05-01T20:19:58.055Z,100383.03
2023-05-01T20:23:11.984Z,100382.88
2023-05-01T20:26:15.161Z,100381.47
2023-05-01T20:29:18.120Z,100381.91
2023-05-01T20:32:21.210Z,100384.59
2023-05-01T20:35:23.757Z,100384.22
2023-05-01T20:38:27.249Z,100378.19
2023-05-01T20:41:30.944Z,100379.88
2023-05-01T20:44:33.642Z,100385.78
2023-05-01T20:47:36.171Z,100385.63
2023-05-01T20:50:38.932Z,100386.22
2023-05-01T20:53:41.581Z,100392.47
2023-05-01T20:56:44.150Z,100399.34
2023-05-01T20:59:50.934Z,100396.97
2023-05-01T21:02:53.526Z,100395.94
2023-05-01T21:05:59.848Z,100398.25
2023-05-01T21:09:04.482Z,100412.38
2023-05-01T21:12:07.346Z,100418.59
2023-05-01T21:15:11.669Z,100413.66
2023-05-01T21:18:16.939Z,100409.16
2023-05-01T21:21:19.540Z,100409.66
2023-05-01T21:24:25.852Z,100411.13
2023-05-01T21:27:28.424Z,100417.22
2023-05-01T21:30:34.389Z,100418.72
2023-05-01T21:33:38.728Z,100417.25
2023-05-01T21:36:47.598Z,100419.59
2023-05-01T21:39:51.045Z,100425.22
2023-05-01T21:42:54.627Z,100428.97
2023-05-01T21:45:57.120Z,100431.47
2023-05-01T21:49:00.291Z,100435.19
2023-05-01T21:52:11.663Z,100436.47
2023-05-01T21:55:25.204Z,100431.09
2023-05-01T21:58:28.187Z,100432.66
2023-05-01T22:01:31.639Z,100431.84
2023-05-01T22:04:35.330Z,100437.66
2023-05-01T22:07:40.103Z,100437.00
2023-05-01T22:10:43.094Z,100434.50
2023-05-01T22:13:46.306Z,100429.38
2023-05-01T22:16:48.913Z,100430.84
2023-05-01T22:19:51.855Z,100432.94
2023-05-01T22:22:54.467Z,100432.06
2023-05-01T22:26:00.133Z,100433.13
2023-05-01T22:29:02.753Z,100433.78
2023-05-01T22:32:05.835Z,100430.91
2023-05-01T22:35:08.907Z,100429.44
2023-05-01T22:38:11.457Z,100426.56
2023-05-01T22:41:15.274Z,100427.38
2023-05-01T22:44:17.997Z,100417.13
2023-05-01T22:47:20.571Z,100425.59
2023-05-01T22:50:23.152Z,100422.13
2023-05-01T22:53:26.822Z,100421.28
2023-05-01T22:56:29.513Z,100416.56
2023-05-01T22:59:32.222Z,100413.91
2023-05-01T23:02:34.891Z,100412.66
2023-05-01T23:05:37.890Z,100415.16
2023-05-01T23:08:40.549Z,100414.75
2023-05-01T23:11:43.164Z,100411.44
2023-05-01T23:14:46.782Z,100418.44
2023-05-01T23:17:49.319Z,100410.84
2023-05-01T23:20:52.557Z,100411.25
2023-05-01T23:23:55.047Z,100411.69
2023-05-01T23:26:57.695Z,100413.75
2023-05-01T23:30:00.593Z,100416.44
2023-05-01T23:33:06.058Z,100412.13
2023-05-01T23:36:13.826Z,100410.28
2023-05-01T23:39:16.682Z,100414.38
2023-05-01T23:42:21.200Z,100413.16
2023-05-01T23:45:23.762Z,100415.19
2023-05-01T23:48:26.662Z,100414.38
2023-05-01T23:51:29.843Z,100418.06
2023-05-01T23:54:33.337Z,100414.78
2023-05-01T23:57:35.844Z,100422.22
